Time;durP1;ratioP1;P1;durP2;ratioP2;P2;SDS_P1;SDS_P2;PMS_P1;PMS_P2;Temp;Humidity;BMP_temperature;BMP_pressure;BME280_temperature;BME280_humidity;BME280_pressure;Samples;Min_cycle;Max_cycle;Signal;HPM_P1;HPM_P2
2023/04/20 00:01:22;;;;;;;5.07;2.63;;;;;;;;;;5219510;28;20780;-78
2023/04/20 00:03:54;;;;;;;7.60;2.67;;;;;;;;;;5224777;28;20037;-77
2023/04/20 00:06:28;;;;;;;21.70;3.77;;;;;;;;;;5220399;28;20032;-77
2023/04/20 00:09:00;;;;;;;5.55;2.85;;;;;;;;;;5227331;28;20509;-77
2023/04/20 00:11:31;;;;;;;8.17;2.93;;;;;;;;;;5219286;28;20040;-76
2023/04/20 00:14:02;;;;;;;7.80;3.27;;;;;;;;;;5219307;28;20009;-77
2023/04/20 00:16:34;;;;;;;6.23;2.90;;;;;;;;;;5239023;28;20357;-77
2023/04/20 00:19:06;;;;;;;6.93;2.87;;;;;;;;;;5228472;28;20030;-78
2023/04/20 00:21:37;;;;;;;9.60;3.23;;;;;;;;;;5229777;28;20022;-77
2023/04/20 00:24:09;;;;;;;4.87;2.70;;;;;;;;;;5227030;28;20438;-77
2023/04/20 00:26:40;;;;;;;3.67;2.37;;;;;;;;;;5239407;28;20562;-77
2023/04/20 00:29:11;;;;;;;7.93;2.63;;;;;;;;;;5219807;27;20477;-77
2023/04/20 00:31:42;;;;;;;6.83;2.80;;;;;;;;;;5219195;28;20018;-77
2023/04/20 00:34:14;;;;;;;8.03;2.90;;;;;;;;;;5235848;28;20133;-76
2023/04/20 00:36:46;;;;;;;5.47;2.37;;;;;;;;;;5239315;28;20025;-76
2023/04/20 00:39:17;;;;;;;9.40;2.70;;;;;;;;;;5238224;28;20510;-76
2023/04/20 00:41:48;;;;;;;6.37;3.20;;;;;;;;;;5239971;28;20036;-76
2023/04/20 00:44:19;;;;;;;8.20;2.90;;;;;;;;;;5239260;28;20032;-76
2023/04/20 00:46:53;;;;;;;5.30;2.60;;;;;;;;;;5240388;28;20036;-76
2023/04/20 00:49:28;;;;;;;10.70;2.60;;;;;;;;;;5239226;28;20025;-76
2023/04/20 00:52:00;;;;;;;5.67;2.70;;;;;;;;;;5239224;28;20024;-75
2023/04/20 00:54:31;;;;;;;6.57;2.67;;;;;;;;;;5232695;28;20346;-76
2023/04/20 00:57:03;;;;;;;4.97;2.60;;;;;;;;;;5230734;28;20950;-77
2023/04/20 00:59:34;;;;;;;8.70;3.17;;;;;;;;;;5239946;28;20016;-77
2023/04/20 01:02:06;;;;;;;4.23;2.80;;;;;;;;;;5239551;28;20022;-76
2023/04/20 01:04:38;;;;;;;6.67;2.77;;;;;;;;;;5221857;28;20037;-76
2023/04/20 01:07:09;;;;;;;10.37;2.63;;;;;;;;;;5249153;28;20063;-76
2023/04/20 01:09:41;;;;;;;5.63;2.70;;;;;;;;;;5248440;28;20091;-76
2023/04/20 01:12:13;;;;;;;8.53;2.97;;;;;;;;;;5249458;28;20535;-76
2023/04/20 01:14:44;;;;;;;6.10;2.90;;;;;;;;;;5241783;28;20097;-76
2023/04/20 01:17:16;;;;;;;6.60;2.60;;;;;;;;;;5226872;28;20632;-76
2023/04/20 01:19:48;;;;;;;4.80;2.73;;;;;;;;;;5228711;28;20104;-76
2023/04/20 01:22:20;;;;;;;5.13;2.60;;;;;;;;;;5227635;28;20417;-76
2023/04/20 01:24:51;;;;;;;8.90;2.73;;;;;;;;;;5229029;28;20026;-76
2023/04/20 01:27:22;;;;;;;5.37;2.90;;;;;;;;;;5228526;28;20057;-76
2023/04/20 01:29:53;;;;;;;7.50;2.53;;;;;;;;;;5228708;28;20044;-77
2023/04/20 01:32:25;;;;;;;4.60;2.33;;;;;;;;;;5228534;28;20020;-77
2023/04/20 01:34:56;;;;;;;6.73;2.80;;;;;;;;;;5231973;28;20026;-77
2023/04/20 01:37:27;;;;;;;6.77;3.27;;;;;;;;;;5230832;28;20013;-76
2023/04/20 01:39:59;;;;;;;5.67;2.50;;;;;;;;;;5230956;28;20600;-76
2023/04/20 01:42:30;;;;;;;5.83;2.63;;;;;;;;;;5231673;28;20025;-76
2023/04/20 01:45:03;;;;;;;8.70;2.70;;;;;;;;;;5232129;28;20108;-76
2023/04/20 01:47:34;;;;;;;6.67;2.70;;;;;;;;;;5231467;27;20033;-76
2023/04/20 01:50:06;;;;;;;4.63;2.70;;;;;;;;;;5231220;28;20033;-76
2023/04/20 01:52:37;;;;;;;4.03;2.37;;;;;;;;;;5230861;28;20018;-77
2023/04/20 01:55:08;;;;;;;2.67;2.07;;;;;;;;;;5231374;28;20026;-77
2023/04/20 01:57:40;;;;;;;3.87;2.40;;;;;;;;;;5230595;28;20029;-77
2023/04/20 02:00:11;;;;;;;5.27;2.97;;;;;;;;;;5231618;28;20033;-78
2023/04/20 02:02:43;;;;;;;6.53;2.70;;;;;;;;;;5225787;28;20013;-77
2023/04/20 02:05:14;;;;;;;5.50;2.73;;;;;;;;;;5224521;28;20055;-77
2023/04/20 02:07:45;;;;;;;9.10;3.33;;;;;;;;;;5229694;28;20023;-76
2023/04/20 02:10:17;;;;;;;5.67;2.37;;;;;;;;;;5231637;28;20072;-77
2023/04/20 02:12:48;;;;;;;5.77;2.40;;;;;;;;;;5231593;28;20022;-77
2023/04/20 02:15:19;;;;;;;10.00;2.93;;;;;;;;;;5230954;28;20120;-77
2023/04/20 02:17:51;;;;;;;7.33;2.90;;;;;;;;;;5230996;28;20001;-77
2023/04/20 02:20:23;;;;;;;5.97;2.70;;;;;;;;;;5230792;28;20036;-77
2023/04/20 02:22:54;;;;;;;2.83;2.23;;;;;;;;;;5230832;28;20040;-76
2023/04/20 02:25:25;;;;;;;5.23;2.50;;;;;;;;;;5230818;28;20022;-77
2023/04/20 02:27:56;;;;;;;5.23;3.00;;;;;;;;;;5231324;28;20471;-77
2023/04/20 02:30:28;;;;;;;9.60;2.90;;;;;;;;;;5230057;28;20370;-77
2023/04/20 02:32:59;;;;;;;9.93;2.90;;;;;;;;;;5229427;28;20035;-76
2023/04/20 02:35:30;;;;;;;6.33;2.83;;;;;;;;;;5231301;28;20017;-77
2023/04/20 02:38:01;;;;;;;8.07;3.07;;;;;;;;;;5229111;27;20021;-77
2023/04/20 02:40:33;;;;;;;3.87;2.60;;;;;;;;;;5231252;28;20045;-76
2023/04/20 02:43:04;;;;;;;3.97;2.93;;;;;;;;;;5230415;28;20112;-76
2023/04/20 02:45:35;;;;;;;4.70;2.60;;;;;;;;;;5230144;28;20025;-77
2023/04/20 02:48:06;;;;;;;6.47;2.63;;;;;;;;;;5230953;28;20032;-77
2023/04/20 02:50:38;;;;;;;6.97;2.83;;;;;;;;;;5229913;28;20021;-77
2023/04/20 02:53:09;;;;;;;5.33;2.60;;;;;;;;;;5229302;28;20490;-76
2023/04/20 02:55:40;;;;;;;4.57;2.67;;;;;;;;;;5230988;28;20036;-77
2023/04/20 02:58:12;;;;;;;4.63;3.10;;;;;;;;;;5228922;27;20068;-77
2023/04/20 03:00:43;;;;;;;5.33;2.73;;;;;;;;;;5230619;27;20017;-77
2023/04/20 03:03:14;;;;;;;5.10;2.60;;;;;;;;;;5225513;28;20021;-76
2023/04/20 03:05:45;;;;;;;5.63;3.27;;;;;;;;;;5230882;28;20029;-77
2023/04/20 03:08:16;;;;;;;8.13;3.43;;;;;;;;;;5229040;28;20385;-77
2023/04/20 03:10:48;;;;;;;4.83;2.80;;;;;;;;;;5229620;28;20472;-76
2023/04/20 03:13:19;;;;;;;8.67;2.77;;;;;;;;;;5230702;28;20022;-77
2023/04/20 03:15:50;;;;;;;6.70;3.03;;;;;;;;;;5229572;28;20105;-77
2023/04/20 03:18:22;;;;;;;4.50;2.97;;;;;;;;;;5229054;28;20492;-76
2023/04/20 03:20:53;;;;;;;7.30;3.23;;;;;;;;;;5230418;28;20029;-76
2023/04/20 03:23:24;;;;;;;6.70;3.53;;;;;;;;;;5229342;28;20021;-76
2023/04/20 03:25:56;;;;;;;5.07;2.93;;;;;;;;;;5230132;28;20027;-77
2023/04/20 03:28:27;;;;;;;6.20;3.33;;;;;;;;;;5229972;28;20026;-77
2023/04/20 03:30:59;;;;;;;6.37;2.97;;;;;;;;;;5228330;27;20033;-77
2023/04/20 03:33:31;;;;;;;9.60;3.17;;;;;;;;;;5229994;28;20042;-77
2023/04/20 03:36:04;;;;;;;5.53;2.93;;;;;;;;;;5230132;28;20053;-77
2023/04/20 03:38:35;;;;;;;6.60;3.30;;;;;;;;;;5229448;28;20457;-76
2023/04/20 03:41:07;;;;;;;6.17;3.30;;;;;;;;;;5230024;28;20030;-75
2023/04/20 03:43:38;;;;;;;4.63;3.10;;;;;;;;;;5229969;28;20025;-76
2023/04/20 03:46:09;;;;;;;8.40;3.33;;;;;;;;;;5229094;28;20430;-76
2023/04/20 03:48:40;;;;;;;5.17;3.07;;;;;;;;;;5230244;28;20006;-76
2023/04/20 03:51:12;;;;;;;3.90;2.53;;;;;;;;;;5229964;28;20022;-76
2023/04/20 03:53:43;;;;;;;5.20;2.80;;;;;;;;;;5228971;28;20372;-76
2023/04/20 03:56:14;;;;;;;5.87;3.10;;;;;;;;;;5229214;28;20014;-76
2023/04/20 03:58:45;;;;;;;6.17;3.03;;;;;;;;;;5228909;28;20018;-77
2023/04/20 04:01:17;;;;;;;6.30;3.60;;;;;;;;;;5219771;28;20083;-77
2023/04/20 04:03:48;;;;;;;5.47;3.20;;;;;;;;;;5217065;28;20527;-77
2023/04/20 04:06:19;;;;;;;8.73;3.43;;;;;;;;;;5227360;28;20037;-77
2023/04/20 04:08:50;;;;;;;8.53;3.47;;;;;;;;;;5228209;28;20048;-77
2023/04/20 04:11:24;;;;;;;7.07;3.73;;;;;;;;;;5218171;28;20071;-77
2023/04/20 04:13:56;;;;;;;4.60;3.83;;;;;;;;;;5310448;27;20052;-76
2023/04/20 04:16:27;;;;;;;7.77;3.07;;;;;;;;;;5220328;28;20059;-76
2023/04/20 04:18:59;;;;;;;5.30;3.20;;;;;;;;;;5229471;28;20602;-77
2023/04/20 04:21:30;;;;;;;6.77;3.53;;;;;;;;;;5215662;28;20029;-77
2023/04/20 04:24:02;;;;;;;5.40;2.60;;;;;;;;;;5208656;28;20034;-77
2023/04/20 04:26:33;;;;;;;9.13;4.27;;;;;;;;;;5207232;28;20037;-77
2023/04/20 04:29:05;;;;;;;4.57;3.50;;;;;;;;;;5208729;28;20033;-77
2023/04/20 04:31:36;;;;;;;8.07;3.67;;;;;;;;;;5208253;28;20021;-77
2023/04/20 04:34:08;;;;;;;6.03;3.50;;;;;;;;;;5208708;28;20026;-77
2023/04/20 04:36:39;;;;;;;8.03;4.80;;;;;;;;;;5208863;28;20109;-77
2023/04/20 04:39:11;;;;;;;5.83;3.47;;;;;;;;;;5207119;28;20042;-77
2023/04/20 04:41:42;;;;;;;6.07;3.70;;;;;;;;;;5208584;28;20022;-77
2023/04/20 04:44:14;;;;;;;6.30;3.00;;;;;;;;;;5208630;28;20511;-78
2023/04/20 04:46:46;;;;;;;10.57;3.40;;;;;;;;;;5218343;28;20354;-77
2023/04/20 04:49:17;;;;;;;4.83;3.23;;;;;;;;;;5229067;28;20053;-78
2023/04/20 04:51:48;;;;;;;5.40;3.70;;;;;;;;;;5214211;28;20121;-77
2023/04/20 04:54:19;;;;;;;9.87;3.77;;;;;;;;;;5221423;28;20013;-78
2023/04/20 04:56:51;;;;;;;7.80;3.47;;;;;;;;;;5227752;28;20118;-77
2023/04/20 04:59:22;;;;;;;9.30;3.40;;;;;;;;;;5228183;28;20424;-77
2023/04/20 05:01:53;;;;;;;7.80;3.37;;;;;;;;;;5218282;28;20025;-78
2023/04/20 05:04:24;;;;;;;7.57;3.47;;;;;;;;;;5217323;28;20021;-77
2023/04/20 05:06:56;;;;;;;4.50;3.33;;;;;;;;;;5218008;28;20025;-78
2023/04/20 05:09:32;;;;;;;7.43;3.97;;;;;;;;;;5221528;28;20528;-78
2023/04/20 05:12:03;;;;;;;10.43;3.90;;;;;;;;;;5221655;28;20024;-78
2023/04/20 05:14:34;;;;;;;8.47;4.00;;;;;;;;;;5221345;28;20029;-78
2023/04/20 05:17:05;;;;;;;8.03;3.70;;;;;;;;;;5227917;27;20033;-76
2023/04/20 05:19:37;;;;;;;11.37;3.77;;;;;;;;;;5225929;28;20025;-76
2023/04/20 05:22:08;;;;;;;7.97;4.27;;;;;;;;;;5222628;28;20476;-76
2023/04/20 05:24:39;;;;;;;7.73;4.23;;;;;;;;;;5233527;28;20036;-76
2023/04/20 05:27:11;;;;;;;7.70;4.27;;;;;;;;;;5221568;28;20651;-77
2023/04/20 05:29:42;;;;;;;7.43;3.73;;;;;;;;;;5221123;28;20047;-76
2023/04/20 05:32:13;;;;;;;6.47;4.17;;;;;;;;;;5222481;28;20074;-76
2023/04/20 05:34:44;;;;;;;7.30;3.80;;;;;;;;;;5230813;28;20021;-76
2023/04/20 05:37:16;;;;;;;6.03;3.80;;;;;;;;;;5220510;28;20052;-76
2023/04/20 05:39:47;;;;;;;4.23;3.57;;;;;;;;;;5220067;28;20108;-76
2023/04/20 05:42:18;;;;;;;9.40;4.37;;;;;;;;;;5221672;28;20060;-77
2023/04/20 05:44:49;;;;;;;5.67;3.83;;;;;;;;;;5221496;28;20204;-75
2023/04/20 05:47:20;;;;;;;8.90;4.00;;;;;;;;;;5221657;28;20380;-76
2023/04/20 05:49:55;;;;;;;11.07;4.13;;;;;;;;;;5231550;28;20033;-77
2023/04/20 05:52:26;;;;;;;5.70;4.18;;;;;;;;;;5240206;28;20686;-76
2023/04/20 05:54:58;;;;;;;8.13;4.07;;;;;;;;;;5234707;28;20029;-76
2023/04/20 05:57:29;;;;;;;5.83;3.83;;;;;;;;;;5238330;28;20060;-76
2023/04/20 06:00:02;;;;;;;6.50;4.10;;;;;;;;;;5235064;28;20530;-76
2023/04/20 06:02:34;;;;;;;9.43;4.13;;;;;;;;;;5225232;27;20495;-76
2023/04/20 06:05:06;;;;;;;7.77;4.33;;;;;;;;;;5221302;28;20064;-75
2023/04/20 06:07:37;;;;;;;13.60;4.27;;;;;;;;;;5220189;28;20053;-75
2023/04/20 06:10:09;;;;;;;7.23;3.87;;;;;;;;;;5219527;28;20087;-75
2023/04/20 06:12:40;;;;;;;4.77;3.67;;;;;;;;;;5224034;28;20044;-75
2023/04/20 06:15:11;;;;;;;10.20;4.80;;;;;;;;;;5240636;28;20021;-76
2023/04/20 06:17:43;;;;;;;11.10;4.10;;;;;;;;;;5239232;28;20025;-76
2023/04/20 06:20:14;;;;;;;5.67;4.30;;;;;;;;;;5240097;28;20053;-76
2023/04/20 06:22:46;;;;;;;7.93;3.97;;;;;;;;;;5219307;27;20040;-77
2023/04/20 06:25:18;;;;;;;5.13;3.93;;;;;;;;;;5220580;27;20090;-77
2023/04/20 06:27:49;;;;;;;9.20;4.90;;;;;;;;;;5241213;28;20025;-77
2023/04/20 06:30:20;;;;;;;7.13;4.83;;;;;;;;;;5239574;28;20028;-76
2023/04/20 06:32:51;;;;;;;10.07;4.33;;;;;;;;;;5229282;28;20026;-75
2023/04/20 06:35:23;;;;;;;7.57;4.90;;;;;;;;;;5220610;28;20055;-76
2023/04/20 06:37:57;;;;;;;5.93;4.50;;;;;;;;;;5231843;28;20017;-75
2023/04/20 06:40:28;;;;;;;10.90;4.78;;;;;;;;;;5223463;28;20029;-75
2023/04/20 06:42:59;;;;;;;8.83;4.43;;;;;;;;;;5220255;28;20037;-76
2023/04/20 06:45:31;;;;;;;10.20;5.00;;;;;;;;;;5234503;28;20036;-76
2023/04/20 06:48:02;;;;;;;7.90;5.00;;;;;;;;;;5234665;28;20061;-76
2023/04/20 06:50:33;;;;;;;7.87;4.70;;;;;;;;;;5220591;28;20442;-75
2023/04/20 06:53:05;;;;;;;7.00;4.80;;;;;;;;;;5226597;28;20021;-77
2023/04/20 06:55:36;;;;;;;11.50;4.47;;;;;;;;;;5228464;28;20628;-76
2023/04/20 06:58:07;;;;;;;7.80;5.13;;;;;;;;;;5241268;28;20048;-76
2023/04/20 07:00:38;;;;;;;6.87;4.70;;;;;;;;;;5241031;28;20020;-76
2023/04/20 07:03:10;;;;;;;9.60;4.47;;;;;;;;;;5240232;28;20041;-77
2023/04/20 07:05:41;;;;;;;8.47;4.93;;;;;;;;;;5244794;28;20037;-76
2023/04/20 07:08:14;;;;;;;6.83;5.10;;;;;;;;;;5247988;28;20358;-77
2023/04/20 07:10:45;;;;;;;12.53;4.97;;;;;;;;;;5251565;28;20516;-77
2023/04/20 07:13:16;;;;;;;7.73;4.60;;;;;;;;;;5251440;28;20044;-76
2023/04/20 07:15:48;;;;;;;9.13;5.40;;;;;;;;;;5250328;28;20046;-75
2023/04/20 07:18:19;;;;;;;6.07;4.13;;;;;;;;;;5238834;28;20057;-76
2023/04/20 07:20:51;;;;;;;7.67;4.10;;;;;;;;;;5228673;28;20158;-76
2023/04/20 07:23:22;;;;;;;7.57;4.90;;;;;;;;;;5211268;28;20025;-76
2023/04/20 07:25:53;;;;;;;9.97;4.30;;;;;;;;;;5236774;28;20020;-76
2023/04/20 07:28:25;;;;;;;9.43;5.30;;;;;;;;;;5231031;27;20116;-75
2023/04/20 07:30:56;;;;;;;9.80;4.47;;;;;;;;;;5233167;28;20026;-76
2023/04/20 07:33:28;;;;;;;12.67;5.30;;;;;;;;;;5231025;28;20108;-77
2023/04/20 07:36:00;;;;;;;6.97;4.40;;;;;;;;;;5224356;28;20061;-77
2023/04/20 07:38:31;;;;;;;6.23;4.20;;;;;;;;;;5229318;28;20074;-77
2023/04/20 07:41:03;;;;;;;6.47;4.73;;;;;;;;;;5228948;28;20025;-75
2023/04/20 07:43:34;;;;;;;9.37;5.10;;;;;;;;;;5229299;28;20792;-76
2023/04/20 07:46:06;;;;;;;10.10;3.63;;;;;;;;;;5230402;28;20055;-76
2023/04/20 07:48:37;;;;;;;9.97;4.93;;;;;;;;;;5230046;28;20033;-77
2023/04/20 07:51:08;;;;;;;7.87;4.50;;;;;;;;;;5228149;28;20029;-77
2023/04/20 07:53:40;;;;;;;6.40;4.10;;;;;;;;;;5228337;28;20022;-77
2023/04/20 07:56:11;;;;;;;14.93;4.63;;;;;;;;;;5229272;28;20037;-77
2023/04/20 07:58:42;;;;;;;5.60;4.13;;;;;;;;;;5229992;28;20028;-76
2023/04/20 08:01:30;;;;;;;10.87;4.60;;;;;;;;;;5228568;28;20032;-75
2023/04/20 08:04:01;;;;;;;8.07;4.10;;;;;;;;;;5219158;28;20652;-75
2023/04/20 08:06:32;;;;;;;7.77;4.27;;;;;;;;;;5223278;28;20077;-75
2023/04/20 08:09:04;;;;;;;9.63;4.47;;;;;;;;;;5231663;28;20528;-74
2023/04/20 08:11:35;;;;;;;6.27;3.90;;;;;;;;;;5229435;27;20025;-75
2023/04/20 08:14:06;;;;;;;5.53;3.50;;;;;;;;;;5228116;28;20676;-75
2023/04/20 08:16:38;;;;;;;7.23;4.10;;;;;;;;;;5229571;27;20100;-75
2023/04/20 08:19:09;;;;;;;10.77;4.00;;;;;;;;;;5228583;28;20171;-75
2023/04/20 08:21:41;;;;;;;5.67;3.23;;;;;;;;;;5228711;28;20057;-75
2023/04/20 08:24:12;;;;;;;10.00;3.73;;;;;;;;;;5228986;28;20540;-75
2023/04/20 08:26:43;;;;;;;6.80;3.30;;;;;;;;;;5216843;28;20084;-75
2023/04/20 08:29:15;;;;;;;5.60;3.53;;;;;;;;;;5220759;28;20057;-75
2023/04/20 08:31:46;;;;;;;10.37;4.30;;;;;;;;;;5228973;28;20073;-75
2023/04/20 08:34:18;;;;;;;10.03;4.83;;;;;;;;;;5228430;28;20430;-75
2023/04/20 08:36:49;;;;;;;6.53;3.73;;;;;;;;;;5228822;28;20022;-75
2023/04/20 08:39:22;;;;;;;7.33;3.87;;;;;;;;;;5228412;28;20022;-75
2023/04/20 08:41:54;;;;;;;4.97;3.60;;;;;;;;;;5229988;28;20021;-75
2023/04/20 08:44:25;;;;;;;7.80;3.57;;;;;;;;;;5231403;28;20072;-75
2023/04/20 08:46:58;;;;;;;7.73;3.30;;;;;;;;;;5233184;28;20033;-76
2023/04/20 08:49:30;;;;;;;8.90;4.50;;;;;;;;;;5230957;28;20029;-76
2023/04/20 08:52:01;;;;;;;7.27;3.70;;;;;;;;;;5230429;28;20840;-75
2023/04/20 08:54:32;;;;;;;6.37;3.60;;;;;;;;;;5231280;28;20481;-76
2023/04/20 08:57:03;;;;;;;5.80;3.60;;;;;;;;;;5232639;28;20060;-76
2023/04/20 08:59:35;;;;;;;6.37;3.50;;;;;;;;;;5228256;28;20018;-76
2023/04/20 09:02:08;;;;;;;5.07;3.20;;;;;;;;;;5221762;28;20068;-75
2023/04/20 09:04:41;;;;;;;5.60;3.10;;;;;;;;;;5219720;28;20018;-76
2023/04/20 09:07:17;;;;;;;7.30;3.00;;;;;;;;;;5229026;28;20424;-74
2023/04/20 09:09:58;;;;;;;4.23;2.80;;;;;;;;;;5229599;28;20132;-75
2023/04/20 09:12:38;;;;;;;6.50;2.90;;;;;;;;;;5231771;28;20029;-75
2023/04/20 09:15:10;;;;;;;6.57;3.37;;;;;;;;;;5231436;28;20349;-74
2023/04/20 09:17:41;;;;;;;4.70;2.83;;;;;;;;;;5232113;28;20021;-74
2023/04/20 09:20:13;;;;;;;5.90;2.60;;;;;;;;;;5231916;28;20384;-75
2023/04/20 09:22:44;;;;;;;3.63;2.67;;;;;;;;;;5229500;28;20018;-74
2023/04/20 09:25:16;;;;;;;3.77;2.33;;;;;;;;;;5230561;28;20026;-74
2023/04/20 09:27:58;;;;;;;3.90;2.70;;;;;;;;;;5230538;28;20033;-74
2023/04/20 09:30:39;;;;;;;3.17;2.50;;;;;;;;;;5230228;28;20029;-75
2023/04/20 09:33:13;;;;;;;8.67;3.00;;;;;;;;;;5231479;28;20667;-75
2023/04/20 09:35:44;;;;;;;3.40;2.30;;;;;;;;;;5231473;28;20087;-75
2023/04/20 09:38:15;;;;;;;4.93;2.67;;;;;;;;;;5230608;28;20013;-75
2023/04/20 09:40:47;;;;;;;6.10;2.83;;;;;;;;;;5230125;28;20100;-75
2023/04/20 09:43:19;;;;;;;6.00;3.00;;;;;;;;;;5231133;28;20013;-75
2023/04/20 09:45:50;;;;;;;5.50;2.97;;;;;;;;;;5231599;28;20075;-75
2023/04/20 09:48:22;;;;;;;3.43;2.67;;;;;;;;;;5229850;28;20450;-75
2023/04/20 09:50:54;;;;;;;6.57;2.90;;;;;;;;;;5228126;28;20024;-75
2023/04/20 09:53:25;;;;;;;5.83;2.77;;;;;;;;;;5229819;28;20017;-76
2023/04/20 09:55:59;;;;;;;4.77;2.83;;;;;;;;;;5230668;28;20018;-76
2023/04/20 09:58:31;;;;;;;5.18;2.83;;;;;;;;;;5230753;28;20398;-77
2023/04/20 10:01:02;;;;;;;5.43;2.87;;;;;;;;;;5230821;28;20045;-76
2023/04/20 10:03:33;;;;;;;3.93;2.73;;;;;;;;;;5224126;28;20025;-75
2023/04/20 10:06:05;;;;;;;4.63;3.27;;;;;;;;;;5223899;28;20021;-75
2023/04/20 10:08:40;;;;;;;7.80;2.87;;;;;;;;;;5229908;28;20180;-75
2023/04/20 10:11:23;;;;;;;6.90;3.07;;;;;;;;;;5230120;28;20038;-75
2023/04/20 10:13:55;;;;;;;5.83;3.03;;;;;;;;;;5230348;28;20018;-75
2023/04/20 10:16:26;;;;;;;5.77;2.63;;;;;;;;;;5229153;28;20022;-76
2023/04/20 10:18:59;;;;;;;8.30;3.30;;;;;;;;;;5231022;28;20013;-76
2023/04/20 10:21:31;;;;;;;3.93;3.00;;;;;;;;;;5229057;28;20741;-75
2023/04/20 10:24:03;;;;;;;4.73;2.83;;;;;;;;;;5231105;28;20025;-76
2023/04/20 10:26:35;;;;;;;7.47;2.87;;;;;;;;;;5228942;27;20013;-76
2023/04/20 10:29:07;;;;;;;3.73;2.73;;;;;;;;;;5230752;28;20036;-76
2023/04/20 10:31:39;;;;;;;8.57;3.73;;;;;;;;;;5230391;28;20472;-75
2023/04/20 10:34:10;;;;;;;6.00;3.97;;;;;;;;;;5227322;28;20021;-76
2023/04/20 10:36:41;;;;;;;8.90;5.30;;;;;;;;;;5226443;28;20021;-76
2023/04/20 10:39:14;;;;;;;7.77;4.17;;;;;;;;;;5228297;28;20701;-76
2023/04/20 10:41:57;;;;;;;6.03;3.40;;;;;;;;;;5228758;28;20026;-76
2023/04/20 10:44:29;;;;;;;4.63;3.20;;;;;;;;;;5226932;28;20041;-76
2023/04/20 10:47:00;;;;;;;6.07;3.33;;;;;;;;;;5228590;28;20030;-77
2023/04/20 10:49:32;;;;;;;10.20;3.70;;;;;;;;;;5220820;28;20058;-77
2023/04/20 10:52:03;;;;;;;6.03;3.17;;;;;;;;;;5207641;28;20014;-76
2023/04/20 10:54:38;;;;;;;4.80;3.30;;;;;;;;;;5221374;28;20022;-77
2023/04/20 10:57:14;;;;;;;7.13;3.63;;;;;;;;;;5228175;28;20037;-77
2023/04/20 10:59:45;;;;;;;5.67;3.13;;;;;;;;;;5228146;28;20479;-76
2023/04/20 11:02:17;;;;;;;8.83;3.37;;;;;;;;;;5224591;28;20026;-77
2023/04/20 11:04:48;;;;;;;4.90;3.03;;;;;;;;;;5210910;28;20384;-76
2023/04/20 11:07:19;;;;;;;5.03;3.40;;;;;;;;;;5233210;28;20031;-76
2023/04/20 11:09:57;;;;;;;4.73;3.37;;;;;;;;;;5218716;28;20083;-76
2023/04/20 11:12:36;;;;;;;7.10;3.40;;;;;;;;;;5216721;28;20025;-77
2023/04/20 11:15:08;;;;;;;6.10;3.47;;;;;;;;;;5214603;28;20029;-77
2023/04/20 11:17:40;;;;;;;7.13;4.37;;;;;;;;;;5216223;28;20021;-76
2023/04/20 11:20:13;;;;;;;6.03;3.87;;;;;;;;;;5216820;28;20021;-76
2023/04/20 11:22:55;;;;;;;4.87;3.87;;;;;;;;;;5216124;28;20125;-76
2023/04/20 11:25:26;;;;;;;6.97;3.90;;;;;;;;;;5218604;28;20036;-76
2023/04/20 11:28:06;;;;;;;6.03;3.70;;;;;;;;;;5220409;28;20029;-76
2023/04/20 11:30:40;;;;;;;5.13;3.97;;;;;;;;;;5215440;28;20034;-76
2023/04/20 11:33:12;;;;;;;9.45;3.80;;;;;;;;;;5217233;28;20044;-76
2023/04/20 11:35:43;;;;;;;9.27;4.37;;;;;;;;;;5236366;28;20041;-76
2023/04/20 11:38:24;;;;;;;6.20;3.67;;;;;;;;;;5239468;28;20104;-76
2023/04/20 11:40:56;;;;;;;6.70;3.77;;;;;;;;;;5240279;28;20059;-77
2023/04/20 11:43:27;;;;;;;8.67;4.30;;;;;;;;;;5239784;27;20066;-77
2023/04/20 11:45:59;;;;;;;5.13;4.30;;;;;;;;;;5238943;28;20100;-77
2023/04/20 11:48:31;;;;;;;6.60;3.77;;;;;;;;;;5229478;28;20052;-77
2023/04/20 11:51:02;;;;;;;5.47;3.80;;;;;;;;;;5222839;28;20018;-76
2023/04/20 11:53:33;;;;;;;9.63;3.57;;;;;;;;;;5219274;28;20025;-77
2023/04/20 11:56:05;;;;;;;6.33;3.83;;;;;;;;;;5231319;28;20021;-77
2023/04/20 11:58:37;;;;;;;5.73;3.77;;;;;;;;;;5218459;28;20025;-76
2023/04/20 12:01:09;;;;;;;7.23;3.97;;;;;;;;;;5219524;28;20021;-77
2023/04/20 12:03:40;;;;;;;5.20;3.83;;;;;;;;;;5217921;28;20040;-77
2023/04/20 12:06:11;;;;;;;8.33;4.00;;;;;;;;;;5230192;28;20025;-77
2023/04/20 12:08:43;;;;;;;6.43;4.27;;;;;;;;;;5239123;28;20049;-77
2023/04/20 12:11:17;;;;;;;5.53;4.20;;;;;;;;;;5238855;28;20389;-77
2023/04/20 12:13:48;;;;;;;10.50;5.13;;;;;;;;;;5240604;28;20025;-77
2023/04/20 12:16:20;;;;;;;8.07;5.50;;;;;;;;;;5238785;28;20035;-77
2023/04/20 12:18:51;;;;;;;9.53;5.40;;;;;;;;;;5238814;28;20106;-77
2023/04/20 12:21:22;;;;;;;6.87;5.40;;;;;;;;;;5237287;28;20029;-76
2023/04/20 12:23:53;;;;;;;7.17;5.10;;;;;;;;;;5230477;28;20385;-77
2023/04/20 12:26:25;;;;;;;6.93;5.00;;;;;;;;;;5218887;28;20102;-78
2023/04/20 12:28:56;;;;;;;6.43;5.10;;;;;;;;;;5216980;28;20033;-77
2023/04/20 12:31:28;;;;;;;11.53;5.97;;;;;;;;;;5218774;28;20020;-78
2023/04/20 12:33:59;;;;;;;5.53;5.03;;;;;;;;;;5218888;28;20072;-77
2023/04/20 12:36:31;;;;;;;6.30;4.40;;;;;;;;;;5218188;28;20049;-75
2023/04/20 12:39:03;;;;;;;5.53;4.47;;;;;;;;;;5218045;28;20021;-76
2023/04/20 12:41:34;;;;;;;5.60;4.27;;;;;;;;;;5222492;28;20017;-75
2023/04/20 12:44:06;;;;;;;5.07;4.20;;;;;;;;;;5239020;28;20372;-76
2023/04/20 12:46:37;;;;;;;5.53;3.80;;;;;;;;;;5217906;28;20116;-76
2023/04/20 12:49:08;;;;;;;5.00;4.10;;;;;;;;;;5218156;28;20483;-76
2023/04/20 12:51:40;;;;;;;4.63;4.10;;;;;;;;;;5216757;28;20083;-76
2023/04/20 12:54:11;;;;;;;6.83;4.67;;;;;;;;;;5218232;27;20416;-76
2023/04/20 12:56:42;;;;;;;6.20;4.27;;;;;;;;;;5218069;28;20077;-76
2023/04/20 12:59:14;;;;;;;5.43;4.10;;;;;;;;;;5218073;28;20048;-76
2023/04/20 13:01:45;;;;;;;5.20;4.00;;;;;;;;;;5218810;28;20025;-76
2023/04/20 13:04:16;;;;;;;7.07;4.30;;;;;;;;;;5218233;28;20025;-76
2023/04/20 13:06:48;;;;;;;6.67;4.57;;;;;;;;;;5223835;28;20017;-76
2023/04/20 13:09:19;;;;;;;7.00;5.17;;;;;;;;;;5226735;28;20091;-76
2023/04/20 13:11:50;;;;;;;5.13;4.63;;;;;;;;;;5228801;28;20032;-76
2023/04/20 13:14:22;;;;;;;7.07;5.53;;;;;;;;;;5227256;28;20469;-76
2023/04/20 13:16:53;;;;;;;6.47;5.00;;;;;;;;;;5228909;28;20049;-76
2023/04/20 13:19:24;;;;;;;6.87;5.00;;;;;;;;;;5228312;28;20025;-75
2023/04/20 13:21:55;;;;;;;5.43;4.80;;;;;;;;;;5228451;28;20449;-74
2023/04/20 13:24:27;;;;;;;6.97;4.70;;;;;;;;;;5217314;28;20029;-74
2023/04/20 13:26:58;;;;;;;7.03;5.50;;;;;;;;;;5231874;28;20028;-75
2023/04/20 13:29:29;;;;;;;7.17;5.13;;;;;;;;;;5226913;28;20033;-76
2023/04/20 13:32:00;;;;;;;5.23;4.73;;;;;;;;;;5224966;28;20510;-76
2023/04/20 13:34:32;;;;;;;5.10;4.30;;;;;;;;;;5228150;28;20040;-76
2023/04/20 13:37:03;;;;;;;6.00;4.70;;;;;;;;;;5228767;28;20021;-75
2023/04/20 13:39:34;;;;;;;7.43;5.03;;;;;;;;;;5226021;28;20473;-75
2023/04/20 13:42:06;;;;;;;10.13;5.47;;;;;;;;;;5224564;28;21617;-76
2023/04/20 13:44:37;;;;;;;5.20;4.47;;;;;;;;;;5231198;28;20763;-75
2023/04/20 13:47:08;;;;;;;5.90;5.00;;;;;;;;;;5231808;28;20048;-76
2023/04/20 13:49:39;;;;;;;6.90;4.63;;;;;;;;;;5230173;28;20077;-75
2023/04/20 13:52:11;;;;;;;5.80;5.13;;;;;;;;;;5231001;28;20143;-76
2023/04/20 13:54:42;;;;;;;8.17;5.03;;;;;;;;;;5230293;28;20082;-76
2023/04/20 13:57:13;;;;;;;5.23;4.73;;;;;;;;;;5227367;28;20670;-76
2023/04/20 13:59:44;;;;;;;6.30;5.10;;;;;;;;;;5234170;28;20021;-76
2023/04/20 14:02:16;;;;;;;6.43;5.00;;;;;;;;;;5228594;28;20718;-76
2023/04/20 14:04:47;;;;;;;5.73;5.13;;;;;;;;;;5225445;28;20503;-74
2023/04/20 14:07:18;;;;;;;6.60;5.10;;;;;;;;;;5221901;28;20511;-73
2023/04/20 14:09:51;;;;;;;6.10;5.03;;;;;;;;;;5227064;28;20057;-73
2023/04/20 14:12:22;;;;;;;8.77;4.90;;;;;;;;;;5228216;27;20025;-75
2023/04/20 14:14:57;;;;;;;6.40;5.27;;;;;;;;;;5223289;28;20028;-76
2023/04/20 14:17:28;;;;;;;6.80;4.90;;;;;;;;;;5223545;28;20030;-75
2023/04/20 14:20:00;;;;;;;6.17;4.27;;;;;;;;;;5228465;28;20037;-76
2023/04/20 14:22:34;;;;;;;5.10;4.40;;;;;;;;;;5225764;28;20052;-75
2023/04/20 14:25:06;;;;;;;7.25;4.65;;;;;;;;;;5233495;28;20034;-75
2023/04/20 14:27:37;;;;;;;7.27;4.90;;;;;;;;;;5228903;27;20026;-75
2023/04/20 14:30:08;;;;;;;5.17;4.63;;;;;;;;;;5230912;28;20029;-75
2023/04/20 14:32:40;;;;;;;4.43;4.03;;;;;;;;;;5226429;28;20025;-75
2023/04/20 14:35:11;;;;;;;4.77;4.13;;;;;;;;;;5231348;28;20117;-75
2023/04/20 14:37:42;;;;;;;5.40;4.70;;;;;;;;;;5228470;28;20099;-76
2023/04/20 14:40:14;;;;;;;4.60;4.07;;;;;;;;;;5228129;28;20029;-76
2023/04/20 14:42:46;;;;;;;7.57;4.40;;;;;;;;;;5225463;28;20025;-76
2023/04/20 14:45:17;;;;;;;4.67;4.23;;;;;;;;;;5227498;28;20021;-76
2023/04/20 14:47:52;;;;;;;7.13;4.87;;;;;;;;;;5231541;28;20634;-75
2023/04/20 14:50:27;;;;;;;6.13;4.17;;;;;;;;;;5228936;28;20033;-75
2023/04/20 14:52:58;;;;;;;4.50;4.10;;;;;;;;;;5227716;28;20026;-76
2023/04/20 14:55:29;;;;;;;4.90;4.40;;;;;;;;;;5230024;28;20030;-76
2023/04/20 14:58:00;;;;;;;6.03;4.20;;;;;;;;;;5230410;28;20054;-75
2023/04/20 15:00:32;;;;;;;6.40;4.37;;;;;;;;;;5229473;28;20106;-75
2023/04/20 15:03:03;;;;;;;5.03;4.50;;;;;;;;;;5224557;28;20132;-73
2023/04/20 15:05:34;;;;;;;4.27;3.87;;;;;;;;;;5226977;28;20417;-75
2023/04/20 15:08:06;;;;;;;4.90;4.10;;;;;;;;;;5234676;28;20748;-75
2023/04/20 15:10:37;;;;;;;6.27;4.27;;;;;;;;;;5231294;28;20472;-76